Time;durP1;ratioP1;P1;durP2;ratioP2;P2;SDS_P1;SDS_P2;PMS_P1;PMS_P2;Temp;Humidity;BMP_temperature;BMP_pressure;BME280_temperature;BME280_humidity;BME280_pressure;Samples;Min_cycle;Max_cycle;Signal;HPM_P1;HPM_P2
2021/09/25 00:02:01;;;;;;;9.40;6.40;;;;;;;21.00;81.53;98149.06;5014954;28;20206;-71
2021/09/25 00:04:28;;;;;;;7.90;6.10;;;;;;;21.19;79.62;98152.97;5013513;28;20232;-71
2021/09/25 00:06:56;;;;;;;7.90;5.80;;;;;;;21.28;79.40;98149.47;5014142;28;20212;-70
2021/09/25 00:09:23;;;;;;;8.50;6.23;;;;;;;20.91;81.42;98139.78;5010090;28;20211;-68
2021/09/25 00:11:50;;;;;;;8.43;5.93;;;;;;;20.98;80.79;98143.09;5033706;23;20613;-67
2021/09/25 00:14:17;;;;;;;9.60;6.20;;;;;;;20.75;82.94;98141.56;5034522;28;20679;-66
2021/09/25 00:16:46;;;;;;;8.83;5.53;;;;;;;21.27;81.72;98147.00;5035352;28;20213;-67
2021/09/25 00:19:13;;;;;;;9.90;6.00;;;;;;;21.66;76.18;98148.22;5039610;28;20206;-66
2021/09/25 00:21:41;;;;;;;9.60;6.17;;;;;;;21.23;78.80;98141.31;5033333;28;20230;-67
2021/09/25 00:24:08;;;;;;;9.33;5.93;;;;;;;20.95;81.21;98147.16;5037193;28;20599;-66
2021/09/25 00:26:36;;;;;;;8.30;6.47;;;;;;;20.79;82.52;98145.41;5034379;28;20198;-66
2021/09/25 00:29:03;;;;;;;9.90;7.00;;;;;;;21.41;79.18;98148.16;5033272;28;20206;-67
2021/09/25 00:31:31;;;;;;;8.50;6.40;;;;;;;21.28;79.39;98145.94;5026219;28;20225;-67
2021/09/25 00:33:59;;;;;;;7.63;5.80;;;;;;;21.62;76.69;98147.97;5031068;28;20654;-66
2021/09/25 00:36:27;;;;;;;11.30;6.50;;;;;;;21.77;75.02;98153.47;5032774;28;20201;-66
2021/09/25 00:38:54;;;;;;;9.20;6.37;;;;;;;21.58;75.05;98151.50;5033241;28;20219;-66
2021/09/25 00:41:21;;;;;;;10.63;6.53;;;;;;;20.53;81.35;98149.00;5029781;28;20230;-66
2021/09/25 00:43:48;;;;;;;8.60;5.97;;;;;;;20.30;84.19;98140.44;5030070;28;20235;-67
2021/09/25 00:46:16;;;;;;;8.23;6.10;;;;;;;21.02;80.41;98144.22;5033311;28;20211;-66
2021/09/25 00:48:43;;;;;;;9.03;6.43;;;;;;;21.17;79.73;98147.78;5034146;28;20210;-66
2021/09/25 00:51:12;;;;;;;8.63;6.33;;;;;;;21.46;77.40;98153.59;5029494;28;20233;-66
2021/09/25 00:53:40;;;;;;;10.23;6.57;;;;;;;21.80;74.47;98155.66;5024871;28;20253;-66
2021/09/25 00:56:09;;;;;;;10.37;6.00;;;;;;;21.44;76.17;98151.16;5029636;28;20316;-66
2021/09/25 00:58:37;;;;;;;9.77;6.70;;;;;;;21.64;75.10;98150.41;5032094;28;20202;-66
2021/09/25 01:01:04;;;;;;;8.00;6.33;;;;;;;21.50;76.08;98152.00;5031810;28;20240;-66
2021/09/25 01:03:32;;;;;;;10.93;7.00;;;;;;;21.56;76.28;98146.31;5027004;28;20238;-66
2021/09/25 01:05:59;;;;;;;10.70;7.37;;;;;;;21.49;75.72;98147.66;5028673;28;20211;-66
2021/09/25 01:08:28;;;;;;;12.23;6.97;;;;;;;21.76;73.93;98154.56;5046195;28;20205;-66
2021/09/25 01:10:56;;;;;;;11.27;6.67;;;;;;;21.68;73.96;98163.22;5032810;28;20688;-66
2021/09/25 01:13:24;;;;;;;10.83;7.27;;;;;;;21.73;73.20;98159.72;5025230;28;20205;-66
2021/09/25 01:15:52;;;;;;;9.43;6.97;;;;;;;21.55;74.37;98155.56;5030553;28;20232;-66
2021/09/25 01:18:20;;;;;;;12.60;7.47;;;;;;;21.00;77.16;98154.50;5038642;28;20214;-66
2021/09/25 01:20:47;;;;;;;12.13;8.07;;;;;;;21.34;76.90;98155.75;5029774;28;20666;-66
2021/09/25 01:23:16;;;;;;;11.37;7.77;;;;;;;21.38;76.71;98146.78;5030151;28;20223;-66
2021/09/25 01:25:43;;;;;;;13.00;8.13;;;;;;;21.50;75.80;98149.28;5034485;28;20214;-66
2021/09/25 01:28:11;;;;;;;13.37;8.00;;;;;;;21.29;77.07;98139.44;5042847;28;20208;-66
2021/09/25 01:30:38;;;;;;;14.80;8.17;;;;;;;20.98;78.71;98137.66;5026236;28;20698;-67
2021/09/25 01:33:05;;;;;;;11.83;8.17;;;;;;;21.20;77.13;98136.41;5025053;28;20229;-66
2021/09/25 01:35:33;;;;;;;11.17;7.87;;;;;;;21.44;76.55;98137.56;5030980;28;20293;-66
2021/09/25 01:38:02;;;;;;;11.97;7.67;;;;;;;21.32;75.35;98131.56;5040378;28;20208;-66
2021/09/25 01:40:31;;;;;;;10.60;7.17;;;;;;;21.46;74.66;98137.31;5033295;28;20264;-66
2021/09/25 01:42:58;;;;;;;12.30;7.83;;;;;;;21.26;75.87;98137.25;5028747;28;20569;-66
2021/09/25 01:45:25;;;;;;;11.03;7.00;;;;;;;21.15;77.28;98139.13;5019972;28;20213;-66
2021/09/25 01:47:53;;;;;;;10.37;7.27;;;;;;;20.83;78.78;98140.28;5040767;28;20206;-66
2021/09/25 01:50:20;;;;;;;10.87;7.30;;;;;;;21.31;76.13;98140.81;5029682;28;20207;-66
2021/09/25 01:52:48;;;;;;;9.20;6.00;;;;;;;21.54;74.22;98143.03;5028653;28;20225;-66
2021/09/25 01:55:15;;;;;;;11.20;6.40;;;;;;;21.53;73.83;98148.75;5026254;28;20584;-66
2021/09/25 01:57:44;;;;;;;10.43;6.80;;;;;;;21.66;72.39;98148.22;5045701;28;20580;-66
2021/09/25 02:00:12;;;;;;;10.53;6.57;;;;;;;21.54;72.38;98151.19;5038954;28;20579;-66
2021/09/25 02:02:39;;;;;;;9.43;6.57;;;;;;;21.24;74.44;98148.34;5026850;28;20696;-66
2021/09/25 02:05:08;;;;;;;10.23;6.20;;;;;;;21.42;74.42;98150.59;5030728;28;20244;-66
2021/09/25 02:07:35;;;;;;;7.93;5.70;;;;;;;21.45;73.67;98151.97;5036091;28;20202;-66
2021/09/25 02:10:03;;;;;;;8.97;6.43;;;;;;;21.48;73.37;98146.03;5031856;28;20199;-66
2021/09/25 02:12:30;;;;;;;11.87;7.03;;;;;;;21.52;72.58;98156.06;5024962;28;20604;-66
2021/09/25 02:14:59;;;;;;;11.73;7.43;;;;;;;21.59;72.49;98164.78;5023971;28;20214;-67
2021/09/25 02:17:26;;;;;;;9.30;6.50;;;;;;;21.56;72.37;98164.50;5020888;28;20207;-66
2021/09/25 02:19:53;;;;;;;10.30;7.50;;;;;;;21.56;72.46;98159.91;5034871;28;20214;-66
2021/09/25 02:22:21;;;;;;;12.53;8.10;;;;;;;20.82;77.12;98166.56;5036843;28;20723;-66
2021/09/25 02:24:48;;;;;;;11.73;7.37;;;;;;;21.26;76.33;98158.94;5030853;28;20226;-66
2021/09/25 02:27:16;;;;;;;12.63;7.00;;;;;;;21.41;74.10;98159.84;5027938;28;20231;-66
2021/09/25 02:29:43;;;;;;;9.30;6.50;;;;;;;21.30;73.64;98165.50;5025404;28;20204;-66
2021/09/25 02:32:12;;;;;;;11.07;7.37;;;;;;;20.95;75.11;98165.31;5023868;28;20230;-66
2021/09/25 02:34:39;;;;;;;12.57;7.70;;;;;;;21.40;73.96;98160.09;5041700;28;20582;-66
2021/09/25 02:37:07;;;;;;;11.63;7.37;;;;;;;21.28;73.34;98160.31;5026627;28;20207;-66
2021/09/25 02:39:35;;;;;;;10.83;7.67;;;;;;;21.35;73.83;98158.19;5027467;28;20213;-66
2021/09/25 02:42:03;;;;;;;10.47;7.17;;;;;;;21.27;74.19;98157.88;5040139;28;20226;-66
2021/09/25 02:44:30;;;;;;;10.17;7.23;;;;;;;21.35;73.18;98155.47;5024738;28;20222;-66
2021/09/25 02:46:57;;;;;;;9.40;6.80;;;;;;;21.28;72.94;98156.81;5019064;28;20210;-66
2021/09/25 02:49:26;;;;;;;11.93;7.73;;;;;;;21.39;72.09;98148.41;5038466;28;20210;-66
2021/09/25 02:51:53;;;;;;;10.23;6.87;;;;;;;21.32;72.52;98145.16;5031565;28;20698;-66
2021/09/25 02:54:21;;;;;;;13.13;8.00;;;;;;;21.21;72.91;98140.75;5022377;28;20207;-66
2021/09/25 02:56:48;;;;;;;10.20;7.17;;;;;;;21.20;73.23;98144.56;5025963;28;20229;-66
2021/09/25 02:59:15;;;;;;;13.80;8.00;;;;;;;21.28;72.56;98135.88;5022897;28;20589;-66
2021/09/25 03:01:42;;;;;;;10.73;7.30;;;;;;;20.92;74.93;98128.69;5030048;28;20236;-66
2021/09/25 03:04:10;;;;;;;11.80;7.20;;;;;;;20.71;75.66;98126.91;5026368;28;20237;-66
2021/09/25 03:06:38;;;;;;;10.33;7.10;;;;;;;21.17;73.77;98130.72;5036169;28;20212;-66
2021/09/25 03:09:06;;;;;;;10.80;7.00;;;;;;;21.21;72.54;98120.94;5033736;28;20207;-66
2021/09/25 03:11:33;;;;;;;11.27;7.77;;;;;;;21.11;72.66;98123.59;5025452;28;20322;-66
2021/09/25 03:14:00;;;;;;;8.53;6.20;;;;;;;21.11;72.53;98127.16;5029843;28;20210;-66
2021/09/25 03:16:27;;;;;;;12.73;7.67;;;;;;;21.12;72.67;98117.91;5030447;28;20214;-66
2021/09/25 03:18:55;;;;;;;9.80;6.20;;;;;;;20.28;78.80;98119.03;5032994;28;20272;-66
2021/09/25 03:21:22;;;;;;;11.00;6.57;;;;;;;20.54;76.44;98126.25;5029120;28;20239;-66
2021/09/25 03:23:51;;;;;;;10.97;7.57;;;;;;;20.99;74.61;98123.84;5038826;28;20223;-66
2021/09/25 03:26:18;;;;;;;11.50;7.33;;;;;;;20.86;73.99;98123.44;5031151;28;20296;-66
2021/09/25 03:28:45;;;;;;;10.80;7.37;;;;;;;21.09;73.03;98125.78;5030552;28;20212;-66
2021/09/25 03:31:13;;;;;;;11.57;6.67;;;;;;;20.65;75.36;98127.97;5032050;28;20225;-66
2021/09/25 03:33:40;;;;;;;9.33;6.60;;;;;;;21.00;73.43;98130.91;5026158;28;20296;-66
2021/09/25 03:36:07;;;;;;;9.67;6.70;;;;;;;21.00;73.31;98114.63;5026436;28;20209;-66
2021/09/25 03:38:35;;;;;;;10.73;7.33;;;;;;;20.92;73.75;98120.53;5037606;28;20210;-66
2021/09/25 03:41:03;;;;;;;10.80;7.20;;;;;;;20.61;75.17;98112.44;5041185;28;20207;-66
2021/09/25 03:43:31;;;;;;;12.63;7.07;;;;;;;20.86;73.60;98121.56;5029084;28;20610;-66
2021/09/25 03:45:59;;;;;;;10.40;6.97;;;;;;;20.67;74.20;98119.56;5033444;28;20668;-66
2021/09/25 03:48:26;;;;;;;9.83;7.13;;;;;;;20.75;73.19;98129.91;5026148;28;20203;-66
2021/09/25 03:50:54;;;;;;;10.77;7.07;;;;;;;20.63;74.18;98124.66;5027652;28;20209;-66
2021/09/25 03:53:21;;;;;;;12.47;7.63;;;;;;;20.57;75.44;98131.16;5040271;28;20211;-66
2021/09/25 03:55:48;;;;;;;12.07;7.47;;;;;;;20.66;73.50;98126.88;5036415;28;20201;-66
2021/09/25 03:58:17;;;;;;;12.27;7.53;;;;;;;20.64;73.38;98133.63;5027646;28;20212;-66
2021/09/25 04:00:44;;;;;;;10.80;6.90;;;;;;;20.49;74.63;98122.69;5032678;28;20210;-66
2021/09/25 04:03:12;;;;;;;11.30;7.20;;;;;;;20.69;74.07;98122.81;5029577;28;20659;-67
2021/09/25 04:05:40;;;;;;;12.17;7.20;;;;;;;20.42;74.56;98133.75;5030754;28;20236;-66
2021/09/25 04:08:08;;;;;;;11.57;7.70;;;;;;;20.60;75.48;98124.38;5031733;28;20213;-66
2021/09/25 04:10:35;;;;;;;12.20;7.20;;;;;;;20.54;75.62;98128.97;5034473;28;20205;-66
2021/09/25 04:13:02;;;;;;;11.43;7.20;;;;;;;20.68;74.50;98119.28;5039339;28;20592;-66
2021/09/25 04:15:31;;;;;;;15.47;7.90;;;;;;;20.50;74.47;98124.31;5038683;28;20576;-66
2021/09/25 04:17:58;;;;;;;12.97;7.90;;;;;;;20.65;73.38;98129.84;5024929;28;20211;-66
2021/09/25 04:20:26;;;;;;;10.60;7.20;;;;;;;20.38;75.60;98123.69;5033106;28;20203;-66
2021/09/25 04:22:53;;;;;;;11.30;7.13;;;;;;;20.51;74.55;98120.53;5028416;28;20235;-66
2021/09/25 04:25:23;;;;;;;12.53;7.70;;;;;;;20.51;73.90;98132.19;5039255;28;20693;-66
2021/09/25 04:27:51;;;;;;;12.60;7.87;;;;;;;20.17;75.08;98127.34;5034295;28;20361;-66
2021/09/25 04:30:19;;;;;;;10.63;7.50;;;;;;;20.34;74.81;98123.41;5026247;28;20212;-66
2021/09/25 04:32:47;;;;;;;12.13;7.27;;;;;;;20.39;74.81;98126.16;5029262;28;20231;-66
2021/09/25 04:35:14;;;;;;;13.63;7.67;;;;;;;20.14;75.01;98127.84;5030974;28;20200;-66
2021/09/25 04:37:42;;;;;;;13.10;6.93;;;;;;;20.30;75.86;98132.28;5025477;28;20210;-66
2021/09/25 04:40:10;;;;;;;10.70;6.63;;;;;;;20.22;76.64;98128.19;5030678;28;20841;-66
2021/09/25 04:42:38;;;;;;;11.90;7.10;;;;;;;19.96;78.33;98130.91;5038496;28;20218;-66
2021/09/25 04:45:06;;;;;;;8.37;6.00;;;;;;;20.18;76.19;98128.97;5029891;28;20595;-66
2021/09/25 04:47:33;;;;;;;10.57;6.40;;;;;;;20.12;76.60;98135.41;5020584;28;20237;-66
2021/09/25 04:50:02;;;;;;;9.97;7.00;;;;;;;20.29;75.47;98130.66;5028381;28;20210;-66
2021/09/25 04:52:29;;;;;;;10.97;6.73;;;;;;;19.73;77.74;98131.22;5030583;28;20228;-66
2021/09/25 04:54:57;;;;;;;10.07;6.87;;;;;;;19.60;79.94;98134.34;5029942;28;20201;-66
2021/09/25 04:57:24;;;;;;;11.10;6.00;;;;;;;20.22;75.92;98139.00;5032241;28;20201;-66
2021/09/25 04:59:51;;;;;;;9.50;6.33;;;;;;;20.23;75.94;98127.13;5033878;28;20685;-66
2021/09/25 05:02:18;;;;;;;11.30;7.27;;;;;;;20.16;75.63;98136.53;5028963;28;20228;-66
2021/09/25 05:04:46;;;;;;;10.23;6.50;;;;;;;20.25;74.50;98137.69;5028527;28;20233;-66
2021/09/25 05:07:14;;;;;;;11.20;6.83;;;;;;;20.24;74.56;98133.34;5024938;28;20213;-66
2021/09/25 05:09:42;;;;;;;12.50;7.10;;;;;;;19.73;76.19;98133.94;5028603;28;20208;-66
2021/09/25 05:12:09;;;;;;;12.40;7.67;;;;;;;19.98;76.41;98135.00;5027596;28;20236;-66
2021/09/25 05:14:38;;;;;;;10.80;6.90;;;;;;;19.95;75.79;98132.78;5032294;28;20559;-66
2021/09/25 05:17:05;;;;;;;10.87;7.00;;;;;;;20.00;75.70;98132.84;5035071;28;20272;-66
2021/09/25 05:19:33;;;;;;;12.30;7.30;;;;;;;20.20;74.70;98135.75;5028108;28;20201;-68
2021/09/25 05:22:00;;;;;;;11.00;7.30;;;;;;;19.87;76.89;98129.75;5029227;28;20723;-71
2021/09/25 05:24:29;;;;;;;13.53;7.00;;;;;;;19.54;79.15;98129.94;5030879;28;20250;-72
2021/09/25 05:26:56;;;;;;;10.50;6.97;;;;;;;19.78;77.98;98134.81;5023821;28;20220;-73
2021/09/25 05:29:24;;;;;;;10.73;7.40;;;;;;;20.24;76.11;98139.59;5026500;28;20197;-73
2021/09/25 05:31:51;;;;;;;13.33;8.20;;;;;;;20.41;74.52;98132.13;5042376;28;20282;-73
2021/09/25 05:34:19;;;;;;;10.60;7.47;;;;;;;20.58;73.14;98140.09;5037370;28;20692;-73
2021/09/25 05:36:46;;;;;;;12.87;7.40;;;;;;;20.57;72.97;98147.41;5032856;28;20287;-73
2021/09/25 05:39:13;;;;;;;12.03;7.97;;;;;;;20.42;74.73;98136.47;5034353;28;20200;-70
2021/09/25 05:41:42;;;;;;;11.83;7.83;;;;;;;20.61;73.54;98134.97;5034659;28;20224;-69
2021/09/25 05:44:09;;;;;;;13.60;7.83;;;;;;;20.26;74.79;98131.22;5035421;28;20210;-71
2021/09/25 05:46:36;;;;;;;13.83;7.90;;;;;;;19.95;77.82;98124.66;5025149;28;20206;-71
2021/09/25 05:49:04;;;;;;;15.80;8.17;;;;;;;20.39;75.71;98122.63;5029022;28;20680;-67
2021/09/25 05:51:31;;;;;;;15.87;8.50;;;;;;;20.62;74.11;98125.75;5029780;28;20245;-66
2021/09/25 05:53:58;;;;;;;14.97;8.20;;;;;;;20.59;74.52;98130.88;5032368;28;20216;-67
2021/09/25 05:56:26;;;;;;;11.80;8.27;;;;;;;20.90;73.25;98143.59;5028112;28;20201;-67
2021/09/25 05:58:54;;;;;;;12.40;7.93;;;;;;;20.96;72.56;98137.94;5036736;28;20204;-67
2021/09/25 06:01:22;;;;;;;13.20;8.07;;;;;;;21.05;72.70;98133.63;5037734;28;20335;-72
2021/09/25 06:03:49;;;;;;;17.03;8.43;;;;;;;21.08;72.56;98140.44;5033990;28;20217;-67
2021/09/25 06:06:16;;;;;;;15.53;8.80;;;;;;;21.21;72.37;98140.75;5027201;28;20255;-67
2021/09/25 06:08:44;;;;;;;13.93;8.23;;;;;;;21.23;72.21;98141.31;5029349;28;20203;-67
2021/09/25 06:11:11;;;;;;;13.23;8.23;;;;;;;21.28;72.06;98135.09;5029366;28;20248;-68
2021/09/25 06:13:38;;;;;;;13.27;7.50;;;;;;;21.36;72.09;98140.00;5027852;28;20216;-70
2021/09/25 06:16:07;;;;;;;16.00;8.83;;;;;;;21.43;72.17;98144.09;5031459;28;20205;-71
2021/09/25 06:18:34;;;;;;;14.83;8.23;;;;;;;21.49;71.72;98142.22;5031722;28;20651;-72
2021/09/25 06:21:02;;;;;;;16.13;9.10;;;;;;;21.49;71.92;98136.78;5032063;28;20559;-72
2021/09/25 06:23:29;;;;;;;13.73;9.40;;;;;;;21.58;71.23;98144.13;5030784;28;20215;-67
2021/09/25 06:25:56;;;;;;;16.50;8.17;;;;;;;21.56;71.25;98131.91;5061138;22;20499;-69
2021/09/25 06:28:23;;;;;;;15.87;8.77;;;;;;;21.70;71.88;98133.91;5051085;28;20708;-68
2021/09/25 06:30:51;;;;;;;13.60;8.10;;;;;;;22.00;71.00;98131.19;5050869;28;20658;-66
2021/09/25 06:33:19;;;;;;;13.87;7.53;;;;;;;21.85;70.46;98138.53;5050482;28;20217;-70
2021/09/25 06:35:48;;;;;;;14.33;8.27;;;;;;;21.95;71.31;98136.63;5053148;28;20229;-76
2021/09/25 06:38:15;;;;;;;12.40;8.10;;;;;;;22.30;70.58;98135.84;5053913;28;20220;-72
2021/09/25 06:40:43;;;;;;;12.80;7.33;;;;;;;22.42;69.43;98142.66;5051705;28;20216;-71
2021/09/25 06:43:10;;;;;;;14.13;7.83;;;;;;;22.18;69.25;98144.28;5061058;28;20567;-76
2021/09/25 06:45:39;;;;;;;11.80;7.03;;;;;;;22.49;68.59;98151.38;5052858;28;20225;-74
2021/09/25 06:48:17;;;;;;;10.33;7.57;;;;;;;22.62;67.94;98155.44;5059133;28;20204;-77
2021/09/25 06:50:45;;;;;;;10.97;7.13;;;;;;;22.78;67.77;98157.88;5059845;28;20198;-74
2021/09/25 06:53:13;;;;;;;13.40;7.23;;;;;;;23.01;67.44;98148.28;5056474;28;20197;-72
2021/09/25 06:55:40;;;;;;;13.20;7.63;;;;;;;22.91;64.45;98162.72;5062135;28;20230;-72
2021/09/25 06:58:07;;;;;;;14.33;7.63;;;;;;;22.94;64.98;98162.19;5054494;28;20208;-72
2021/09/25 07:00:35;;;;;;;13.60;7.10;;;;;;;22.89;63.47;98169.53;5057564;28;20208;-72
2021/09/25 07:03:02;;;;;;;12.23;7.80;;;;;;;22.69;62.72;98164.94;5054434;28;20198;-72
2021/09/25 07:05:30;;;;;;;11.13;7.40;;;;;;;23.26;62.59;98162.66;5049778;28;20224;-74
2021/09/25 07:07:59;;;;;;;9.73;6.50;;;;;;;23.64;62.37;98155.66;5044646;28;20212;-73
2021/09/25 07:10:26;;;;;;;11.47;6.57;;;;;;;23.81;61.96;98161.59;5049339;28;20227;-71
2021/09/25 07:12:53;;;;;;;9.73;6.37;;;;;;;23.89;60.33;98159.13;5048285;28;20237;-71
2021/09/25 07:15:21;;;;;;;11.17;7.27;;;;;;;23.62;59.31;98168.78;5045373;28;20229;-72
2021/09/25 07:17:48;;;;;;;12.17;6.47;;;;;;;23.66;60.14;98159.75;5048132;28;20201;-72
2021/09/25 07:20:18;;;;;;;11.67;6.60;;;;;;;24.11;58.27;98172.34;5047112;28;20211;-74
2021/09/25 07:22:51;;;;;;;10.27;6.63;;;;;;;24.46;57.75;98172.03;5054129;28;20650;-75
2021/09/25 07:25:20;;;;;;;10.70;6.37;;;;;;;24.29;57.06;98177.94;5052909;28;20836;-75
2021/09/25 07:27:47;;;;;;;8.40;5.87;;;;;;;24.54;56.39;98177.72;5058863;28;20205;-76
2021/09/25 07:30:15;;;;;;;8.87;5.97;;;;;;;24.59;56.19;98185.91;5056222;28;20212;-72
2021/09/25 07:32:42;;;;;;;9.50;5.83;;;;;;;25.05;55.33;98189.81;5054703;28;20206;-73
2021/09/25 07:35:11;;;;;;;7.90;5.83;;;;;;;24.82;54.92;98192.53;5049344;28;20223;-71
2021/09/25 07:37:38;;;;;;;8.07;5.50;;;;;;;25.15;54.27;98194.34;5046141;28;20600;-72
2021/09/25 07:40:07;;;;;;;8.00;5.73;;;;;;;25.62;53.92;98195.19;5056254;28;20206;-73
2021/09/25 07:42:36;;;;;;;7.20;5.50;;;;;;;25.36;53.42;98191.16;5061319;28;20201;-70
2021/09/25 07:45:04;;;;;;;8.07;5.43;;;;;;;24.87;55.30;98197.94;5050491;28;20702;-71
2021/09/25 07:47:31;;;;;;;9.40;5.60;;;;;;;25.86;53.24;98198.72;5054722;28;20651;-70
2021/09/25 07:49:58;;;;;;;10.37;5.70;;;;;;;26.21;52.59;98209.19;5052346;28;20669;-72
2021/09/25 07:52:25;;;;;;;11.03;5.90;;;;;;;26.29;51.78;98207.72;5054940;28;20230;-69
2021/09/25 07:54:53;;;;;;;9.03;5.97;;;;;;;26.52;51.30;98213.09;5058348;28;20201;-70
2021/09/25 07:57:20;;;;;;;12.00;6.10;;;;;;;26.78;50.95;98199.78;5049915;28;20209;-70
2021/09/25 07:59:49;;;;;;;7.33;5.70;;;;;;;26.86;50.31;98205.41;5058947;28;20216;-73
2021/09/25 08:02:16;;;;;;;8.23;5.57;;;;;;;26.81;50.33;98201.94;5057659;28;20209;-71
2021/09/25 08:04:44;;;;;;;8.73;5.10;;;;;;;27.00;49.83;98208.19;5053562;28;20200;-70
2021/09/25 08:07:11;;;;;;;9.33;5.47;;;;;;;25.67;52.71;98195.13;5052140;28;20223;-70
2021/09/25 08:09:38;;;;;;;7.37;5.43;;;;;;;27.22;49.73;98200.91;5056281;28;20651;-70
2021/09/25 08:12:07;;;;;;;7.50;5.20;;;;;;;27.01;50.26;98196.13;5053820;28;20206;-70
2021/09/25 08:14:34;;;;;;;8.90;5.37;;;;;;;26.69;49.79;98201.59;5063970;28;20213;-70
2021/09/25 08:17:03;;;;;;;7.60;5.03;;;;;;;26.20;50.48;98202.06;5055692;28;20206;-71
2021/09/25 08:19:30;;;;;;;7.23;5.27;;;;;;;26.80;50.58;98189.38;5057955;28;20543;-71
2021/09/25 08:21:58;;;;;;;8.73;5.57;;;;;;;27.53;47.88;98195.66;5057545;28;20198;-69
2021/09/25 08:24:25;;;;;;;9.17;5.80;;;;;;;28.30;46.25;98189.88;5062842;28;20204;-67
2021/09/25 08:26:52;;;;;;;9.53;5.67;;;;;;;28.41;46.30;98201.44;5057684;28;20218;-67
2021/09/25 08:29:19;;;;;;;7.13;5.10;;;;;;;27.01;48.35;98196.13;5054501;28;20217;-68
2021/09/25 08:31:47;;;;;;;10.57;5.17;;;;;;;28.35;45.30;98199.91;5049530;28;20676;-69
2021/09/25 08:34:17;;;;;;;8.30;5.40;;;;;;;28.55;44.50;98204.94;5068719;28;20201;-70
2021/09/25 08:36:45;;;;;;;8.07;5.03;;;;;;;27.97;45.28;98199.41;5068406;28;20252;-71
2021/09/25 08:39:12;;;;;;;10.17;5.87;;;;;;;26.74;48.79;98196.03;5068240;28;20729;-72
2021/09/25 08:41:40;;;;;;;8.27;5.43;;;;;;;27.25;47.30;98202.25;5068290;28;20202;-71
2021/09/25 08:44:08;;;;;;;10.47;5.10;;;;;;;26.94;48.64;98198.41;5057604;28;20300;-69
2021/09/25 08:46:36;;;;;;;11.90;5.20;;;;;;;28.24;46.30;98193.03;5057552;28;20592;-73
2021/09/25 08:49:04;;;;;;;7.90;5.20;;;;;;;26.62;48.73;98204.75;5054552;28;20272;-72
2021/09/25 08:51:33;;;;;;;8.80;4.67;;;;;;;27.17;47.69;98192.78;5053590;28;20197;-70
2021/09/25 08:54:00;;;;;;;10.53;5.37;;;;;;;28.05;46.34;98192.38;5053206;28;20209;-70
2021/09/25 08:56:29;;;;;;;8.37;5.60;;;;;;;27.76;47.09;98191.91;5044810;28;20229;-70
2021/09/25 08:58:56;;;;;;;9.53;4.50;;;;;;;28.01;45.68;98188.63;5036518;28;20299;-70
2021/09/25 09:01:25;;;;;;;6.50;4.50;;;;;;;28.88;44.16;98189.84;5053399;28;20562;-69
2021/09/25 09:03:53;;;;;;;6.87;4.87;;;;;;;28.66;43.49;98185.16;5053446;28;20210;-72
2021/09/25 09:06:25;;;;;;;8.67;5.10;;;;;;;29.58;41.56;98194.25;5060071;28;20228;-69
2021/09/25 09:08:55;;;;;;;7.50;4.63;;;;;;;29.80;41.03;98193.38;5062129;28;20195;-70
2021/09/25 09:11:24;;;;;;;7.97;6.00;;;;;;;27.41;46.64;98187.94;5037404;28;20206;-70
2021/09/25 09:13:53;;;;;;;7.57;4.70;;;;;;;27.34;47.04;98182.06;5052492;28;20806;-75
2021/09/25 09:16:21;;;;;;;8.97;4.53;;;;;;;28.76;44.45;98184.91;5058846;28;20221;-73
2021/09/25 09:18:50;;;;;;;7.17;5.03;;;;;;;27.77;45.86;98182.56;5054175;28;20231;-74
2021/09/25 09:21:19;;;;;;;6.87;4.83;;;;;;;29.09;44.31;98186.25;5055088;28;20206;-75
2021/09/25 09:23:49;;;;;;;7.73;4.53;;;;;;;29.82;42.09;98185.59;5057382;28;20212;-70
2021/09/25 09:26:19;;;;;;;11.53;4.53;;;;;;;30.04;41.48;98191.78;5061899;28;20574;-70
2021/09/25 09:28:48;;;;;;;6.07;4.20;;;;;;;29.36;42.61;98185.25;5053689;28;20210;-70
2021/09/25 09:31:16;;;;;;;7.77;4.50;;;;;;;28.40;45.11;98172.38;5053145;28;20583;-71
2021/09/25 09:33:45;;;;;;;8.17;4.50;;;;;;;28.95;43.67;98187.44;5055414;28;20558;-69
2021/09/25 09:36:22;;;;;;;5.43;4.07;;;;;;;29.75;41.32;98188.81;5053687;28;20572;-70
2021/09/25 09:38:52;;;;;;;6.57;4.03;;;;;;;28.89;43.72;98173.00;5055097;28;20209;-70
2021/09/25 09:41:23;;;;;;;6.33;4.47;;;;;;;29.01;44.42;98178.78;5069202;28;20726;-69
2021/09/25 09:43:51;;;;;;;8.50;4.60;;;;;;;30.11;42.45;98174.81;5053801;28;20570;-70
2021/09/25 09:46:20;;;;;;;6.57;4.00;;;;;;;29.51;42.96;98176.56;5055752;28;20234;-68
2021/09/25 09:48:48;;;;;;;6.80;4.13;;;;;;;29.24;44.00;98163.84;5052636;28;20297;-70
2021/09/25 09:51:16;;;;;;;10.27;4.10;;;;;;;29.55;42.89;98167.38;5055209;28;20214;-70
2021/09/25 09:53:45;;;;;;;6.63;4.77;;;;;;;30.90;40.54;98170.56;5052573;28;20199;-70
2021/09/25 09:56:21;;;;;;;9.13;4.23;;;;;;;28.78;43.29;98171.66;5054538;28;20575;-69
2021/09/25 09:59:00;;;;;;;5.77;3.87;;;;;;;28.83;43.66;98157.00;5062432;28;20212;-69
2021/09/25 10:01:28;;;;;;;8.97;4.20;;;;;;;31.28;39.54;98166.75;5052439;28;20249;-70
2021/09/25 10:03:55;;;;;;;6.13;3.80;;;;;;;31.87;37.89;98164.84;5048138;28;20220;-70
2021/09/25 10:06:22;;;;;;;5.20;3.93;;;;;;;32.27;36.67;98166.84;5051559;28;20232;-69
2021/09/25 10:08:50;;;;;;;8.23;4.37;;;;;;;32.37;36.87;98155.38;5051094;28;20211;-69
2021/09/25 10:11:18;;;;;;;5.17;4.10;;;;;;;31.33;38.04;98165.75;5061332;28;20235;-69
2021/09/25 10:13:47;;;;;;;8.03;4.10;;;;;;;31.78;38.58;98150.28;5054272;28;20208;-70
2021/09/25 10:16:15;;;;;;;7.23;3.90;;;;;;;31.63;38.52;98164.63;5053568;28;20672;-70
2021/09/25 10:18:43;;;;;;;7.40;4.10;;;;;;;31.55;39.00;98155.25;5052277;28;20287;-75
2021/09/25 10:21:13;;;;;;;5.93;3.60;;;;;;;32.00;37.86;98148.03;5051886;28;20295;-70
2021/09/25 10:23:46;;;;;;;5.57;3.57;;;;;;;30.46;40.40;98159.91;5052081;28;20627;-71
2021/09/25 10:26:14;;;;;;;4.32;3.67;;;;;;;29.39;43.89;98135.13;5050942;28;20236;-70
2021/09/25 10:28:41;;;;;;;7.77;3.57;;;;;;;29.89;42.96;98130.91;5064377;28;20207;-71
2021/09/25 10:31:19;;;;;;;6.50;3.93;;;;;;;30.53;40.61;98138.19;5058118;28;20215;-70
2021/09/25 10:34:04;;;;;;;7.60;3.50;;;;;;;30.13;41.15;98140.31;5047627;28;20202;-70
2021/09/25 10:36:41;;;;;;;6.40;3.77;;;;;;;29.53;44.44;98131.13;5051585;28;20220;-71
2021/09/25 10:39:25;;;;;;;5.30;3.60;;;;;;;30.56;41.49;98135.59;5052173;28;20205;-71
2021/09/25 10:42:06;;;;;;;7.90;3.93;;;;;;;30.08;43.18;98118.44;5053984;28;20216;-71
2021/09/25 10:44:36;;;;;;;5.13;3.50;;;;;;;29.48;43.92;98124.94;5066632;28;20699;-70
2021/09/25 10:47:13;;;;;;;5.30;3.37;;;;;;;30.19;42.91;98122.50;5054929;28;20591;-71
2021/09/25 10:49:44;;;;;;;5.67;3.57;;;;;;;32.50;37.85;98128.63;5051652;28;20688;-70
2021/09/25 10:52:12;;;;;;;3.97;3.30;;;;;;;33.00;36.48;98140.31;5056181;28;20198;-71
2021/09/25 10:54:39;;;;;;;6.65;3.97;;;;;;;32.02;38.23;98125.59;5051299;28;20205;-70
2021/09/25 10:57:15;;;;;;;3.60;3.30;;;;;;;33.22;35.50;98124.09;5055181;28;20208;-71
2021/09/25 11:00:16;;;;;;;5.68;3.30;;;;;;;31.88;38.17;98119.53;5053803;28;20724;-70
2021/09/25 11:02:45;;;;;;;3.85;3.17;;;;;;;30.90;40.20;98115.44;5052109;28;20205;-70
2021/09/25 11:05:17;;;;;;;6.00;3.40;;;;;;;30.43;42.26;98113.72;5059059;28;20221;-70
2021/09/25 11:07:50;;;;;;;3.58;2.78;;;;;;;32.68;38.49;98107.97;5065420;28;20225;-70
2021/09/25 11:10:37;;;;;;;4.82;3.60;;;;;;;32.95;37.42;98124.72;5059664;28;20547;-70
2021/09/25 11:13:04;;;;;;;4.45;3.30;;;;;;;32.76;36.87;98116.16;5050542;28;20197;-71
2021/09/25 11:15:33;;;;;;;5.30;3.30;;;;;;;33.88;34.54;98119.16;5050934;28;20232;-71
2021/09/25 11:18:26;;;;;;;4.82;3.55;;;;;;;34.07;34.71;98117.41;5054646;28;20292;-70
2021/09/25 11:21:02;;;;;;;5.05;3.40;;;;;;;32.66;36.48;98111.06;5056160;28;20233;-71
2021/09/25 11:23:43;;;;;;;3.58;2.80;;;;;;;33.50;35.51;98105.66;5055215;28;20562;-71
2021/09/25 11:26:11;;;;;;;6.75;3.35;;;;;;;32.57;37.21;98110.34;5050730;28;20291;-71
2021/09/25 11:28:43;;;;;;;3.60;3.28;;;;;;;32.46;37.18;98102.81;5055928;28;20213;-71
2021/09/25 11:31:10;;;;;;;4.03;3.20;;;;;;;31.45;39.37;98108.72;5057581;28;20219;-70
2021/09/25 11:33:39;;;;;;;4.25;3.30;;;;;;;30.33;41.80;98095.59;5051352;28;20202;-70
2021/09/25 11:36:11;;;;;;;3.30;3.00;;;;;;;30.64;41.79;98098.13;5067167;28;20238;-70